sensor_id;sensor_type;location;lat;lon;timestamp;temperature;humidity
30893;DHT22;17595;50.884;4.346;2023-09-12T00:02:18;23.30;99.90
30893;DHT22;17595;50.884;4.346;2023-09-12T00:04:44;23.40;99.90
30893;DHT22;17595;50.884;4.346;2023-09-12T00:07:09;23.40;99.90
30893;DHT22;17595;50.884;4.346;2023-09-12T00:09:35;23.50;99.90
30893;DHT22;17595;50.884;4.346;2023-09-12T00:12:01;23.40;99.90
30893;DHT22;17595;50.884;4.346;2023-09-12T00:16:52;23.40;99.90
30893;DHT22;17595;50.884;4.346;2023-09-12T00:19:20;23.40;99.90
30893;DHT22;17595;50.884;4.346;2023-09-12T00:21:46;23.40;99.90
30893;DHT22;17595;50.884;4.346;2023-09-12T00:24:12;23.40;99.90
30893;DHT22;17595;50.884;4.346;2023-09-12T00:29:03;22.40;99.90
30893;DHT22;17595;50.884;4.346;2023-09-12T00:31:29;23.50;99.90
30893;DHT22;17595;50.884;4.346;2023-09-12T00:33:54;23.00;99.90
30893;DHT22;17595;50.884;4.346;2023-09-12T00:36:20;23.40;99.90
30893;DHT22;17595;50.884;4.346;2023-09-12T00:38:45;23.40;99.90
30893;DHT22;17595;50.884;4.346;2023-09-12T00:41:11;23.40;99.90
30893;DHT22;17595;50.884;4.346;2023-09-12T00:43:36;23.40;99.90
30893;DHT22;17595;50.884;4.346;2023-09-12T00:46:02;23.40;99.90
30893;DHT22;17595;50.884;4.346;2023-09-12T00:48:28;23.40;99.90
30893;DHT22;17595;50.884;4.346;2023-09-12T00:50:55;23.40;99.90
30893;DHT22;17595;50.884;4.346;2023-09-12T00:53:21;23.40;99.90
30893;DHT22;17595;50.884;4.346;2023-09-12T00:55:51;23.30;99.90
30893;DHT22;17595;50.884;4.346;2023-09-12T00:58:22;23.30;99.90
30893;DHT22;17595;50.884;4.346;2023-09-12T01:00:48;23.30;99.90
30893;DHT22;17595;50.884;4.346;2023-09-12T01:03:13;23.30;99.90
30893;DHT22;17595;50.884;4.346;2023-09-12T01:05:41;23.20;99.90
30893;DHT22;17595;50.884;4.346;2023-09-12T01:08:08;23.30;99.90
30893;DHT22;17595;50.884;4.346;2023-09-12T01:10:33;23.20;99.90
30893;DHT22;17595;50.884;4.346;2023-09-12T01:12:59;23.10;99.90
30893;DHT22;17595;50.884;4.346;2023-09-12T01:15:25;22.70;99.90
30893;DHT22;17595;50.884;4.346;2023-09-12T01:17:51;22.70;99.90
30893;DHT22;17595;50.884;4.346;2023-09-12T01:20:22;22.60;99.90
30893;DHT22;17595;50.884;4.346;2023-09-12T01:22:53;22.60;99.90
30893;DHT22;17595;50.884;4.346;2023-09-12T01:28:05;22.60;99.90
30893;DHT22;17595;50.884;4.346;2023-09-12T01:30:35;22.60;99.90
30893;DHT22;17595;50.884;4.346;2023-09-12T01:33:01;22.70;99.90
30893;DHT22;17595;50.884;4.346;2023-09-12T01:35:27;22.80;99.90
30893;DHT22;17595;50.884;4.346;2023-09-12T01:37:54;22.80;99.90
30893;DHT22;17595;50.884;4.346;2023-09-12T01:40:27;22.70;99.90
30893;DHT22;17595;50.884;4.346;2023-09-12T01:42:57;22.70;99.90
30893;DHT22;17595;50.884;4.346;2023-09-12T01:45:23;22.70;99.90
30893;DHT22;17595;50.884;4.346;2023-09-12T01:47:50;22.70;99.90
30893;DHT22;17595;50.884;4.346;2023-09-12T01:50:16;22.60;99.90
30893;DHT22;17595;50.884;4.346;2023-09-12T01:52:42;22.60;99.90
30893;DHT22;17595;50.884;4.346;2023-09-12T01:55:09;22.40;99.90
30893;DHT22;17595;50.884;4.346;2023-09-12T01:57:37;22.30;99.90
30893;DHT22;17595;50.884;4.346;2023-09-12T02:00:03;22.30;99.90
30893;DHT22;17595;50.884;4.346;2023-09-12T02:02:29;22.30;99.90
30893;DHT22;17595;50.884;4.346;2023-09-12T02:05:16;22.40;99.90
30893;DHT22;17595;50.884;4.346;2023-09-12T02:07:45;22.50;99.90
30893;DHT22;17595;50.884;4.346;2023-09-12T02:10:11;22.60;99.90
30893;DHT22;17595;50.884;4.346;2023-09-12T02:12:37;22.60;99.90
30893;DHT22;17595;50.884;4.346;2023-09-12T02:15:04;22.50;99.90
30893;DHT22;17595;50.884;4.346;2023-09-12T02:17:30;22.50;99.90
30893;DHT22;17595;50.884;4.346;2023-09-12T02:19:55;22.80;99.90
30893;DHT22;17595;50.884;4.346;2023-09-12T02:22:21;22.60;99.90
30893;DHT22;17595;50.884;4.346;2023-09-12T02:24:47;22.60;99.90
30893;DHT22;17595;50.884;4.346;2023-09-12T02:27:12;22.60;99.90
30893;DHT22;17595;50.884;4.346;2023-09-12T02:29:41;22.70;99.90
30893;DHT22;17595;50.884;4.346;2023-09-12T02:32:07;22.70;99.90
30893;DHT22;17595;50.884;4.346;2023-09-12T02:34:33;22.80;99.90
30893;DHT22;17595;50.884;4.346;2023-09-12T02:36:59;22.80;99.90
30893;DHT22;17595;50.884;4.346;2023-09-12T02:39:25;22.60;99.90
30893;DHT22;17595;50.884;4.346;2023-09-12T02:41:50;22.60;99.90
30893;DHT22;17595;50.884;4.346;2023-09-12T02:44:16;22.50;99.90
30893;DHT22;17595;50.884;4.346;2023-09-12T02:46:41;22.60;99.90
30893;DHT22;17595;50.884;4.346;2023-09-12T02:49:07;22.60;99.90
30893;DHT22;17595;50.884;4.346;2023-09-12T02:51:33;22.70;99.90
30893;DHT22;17595;50.884;4.346;2023-09-12T02:53:58;22.80;99.90
30893;DHT22;17595;50.884;4.346;2023-09-12T02:56:24;22.80;99.90
30893;DHT22;17595;50.884;4.346;2023-09-12T02:58:50;22.80;99.90
30893;DHT22;17595;50.884;4.346;2023-09-12T03:01:16;22.80;99.90
30893;DHT22;17595;50.884;4.346;2023-09-12T03:03:43;22.80;99.90
30893;DHT22;17595;50.884;4.346;2023-09-12T03:06:09;22.80;99.90
30893;DHT22;17595;50.884;4.346;2023-09-12T03:08:35;22.90;99.90
30893;DHT22;17595;50.884;4.346;2023-09-12T03:13:28;22.90;99.90
30893;DHT22;17595;50.884;4.346;2023-09-12T03:15:54;23.00;99.90
30893;DHT22;17595;50.884;4.346;2023-09-12T03:18:20;22.90;99.90
30893;DHT22;17595;50.884;4.346;2023-09-12T03:20:45;23.00;99.90
30893;DHT22;17595;50.884;4.346;2023-09-12T03:25:38;23.00;99.90
30893;DHT22;17595;50.884;4.346;2023-09-12T03:28:05;22.70;99.90
30893;DHT22;17595;50.884;4.346;2023-09-12T03:30:32;23.00;99.90
30893;DHT22;17595;50.884;4.346;2023-09-12T03:37:50;23.00;99.90
30893;DHT22;17595;50.884;4.346;2023-09-12T03:40:16;23.00;99.90
30893;DHT22;17595;50.884;4.346;2023-09-12T03:42:41;23.00;99.90
30893;DHT22;17595;50.884;4.346;2023-09-12T03:45:07;23.00;99.90
30893;DHT22;17595;50.884;4.346;2023-09-12T03:47:33;23.00;99.90
30893;DHT22;17595;50.884;4.346;2023-09-12T03:49:59;23.00;99.90
30893;DHT22;17595;50.884;4.346;2023-09-12T03:52:25;23.10;99.90
30893;DHT22;17595;50.884;4.346;2023-09-12T03:54:50;23.00;99.90
30893;DHT22;17595;50.884;4.346;2023-09-12T03:57:16;23.10;99.90
30893;DHT22;17595;50.884;4.346;2023-09-12T03:59:42;23.10;99.90
30893;DHT22;17595;50.884;4.346;2023-09-12T04:02:08;23.10;99.90
30893;DHT22;17595;50.884;4.346;2023-09-12T04:04:34;23.00;99.90
30893;DHT22;17595;50.884;4.346;2023-09-12T04:07:00;23.00;99.90
30893;DHT22;17595;50.884;4.346;2023-09-12T04:09:26;22.90;99.90
30893;DHT22;17595;50.884;4.346;2023-09-12T04:14:21;22.90;99.90
30893;DHT22;17595;50.884;4.346;2023-09-12T04:16:46;22.80;99.90
30893;DHT22;17595;50.884;4.346;2023-09-12T04:19:14;22.80;99.90
30893;DHT22;17595;50.884;4.346;2023-09-12T04:21:39;22.70;99.90
30893;DHT22;17595;50.884;4.346;2023-09-12T04:24:06;22.70;99.90
30893;DHT22;17595;50.884;4.346;2023-09-12T04:26:32;22.70;99.90
30893;DHT22;17595;50.884;4.346;2023-09-12T04:28:57;22.80;99.90
30893;DHT22;17595;50.884;4.346;2023-09-12T04:31:23;22.80;99.90
30893;DHT22;17595;50.884;4.346;2023-09-12T04:33:51;22.90;99.90
30893;DHT22;17595;50.884;4.346;2023-09-12T04:46:01;22.90;99.90
30893;DHT22;17595;50.884;4.346;2023-09-12T04:48:27;22.90;99.90
30893;DHT22;17595;50.884;4.346;2023-09-12T04:53:18;22.80;99.90
30893;DHT22;17595;50.884;4.346;2023-09-12T04:55:44;22.60;99.90
30893;DHT22;17595;50.884;4.346;2023-09-12T04:58:10;22.30;99.90
30893;DHT22;17595;50.884;4.346;2023-09-12T05:00:35;21.20;99.90
30893;DHT22;17595;50.884;4.346;2023-09-12T05:03:02;23.00;99.90
30893;DHT22;17595;50.884;4.346;2023-09-12T05:05:29;22.60;99.90
30893;DHT22;17595;50.884;4.346;2023-09-12T05:07:54;22.70;99.90
30893;DHT22;17595;50.884;4.346;2023-09-12T05:10:20;22.60;99.90
30893;DHT22;17595;50.884;4.346;2023-09-12T05:12:46;22.50;99.90
30893;DHT22;17595;50.884;4.346;2023-09-12T05:15:11;22.60;99.90
30893;DHT22;17595;50.884;4.346;2023-09-12T05:17:37;22.40;99.90
30893;DHT22;17595;50.884;4.346;2023-09-12T05:20:03;22.30;99.90
30893;DHT22;17595;50.884;4.346;2023-09-12T05:22:32;22.30;99.90
30893;DHT22;17595;50.884;4.346;2023-09-12T05:24:57;22.20;99.90
30893;DHT22;17595;50.884;4.346;2023-09-12T05:27:23;22.20;99.90
30893;DHT22;17595;50.884;4.346;2023-09-12T05:29:49;22.20;99.90
30893;DHT22;17595;50.884;4.346;2023-09-12T05:32:14;22.20;99.90
30893;DHT22;17595;50.884;4.346;2023-09-12T05:34:42;22.20;99.90
30893;DHT22;17595;50.884;4.346;2023-09-12T05:41:59;22.10;99.90
30893;DHT22;17595;50.884;4.346;2023-09-12T05:44:25;22.00;99.90
30893;DHT22;17595;50.884;4.346;2023-09-12T05:49:16;22.10;99.90
30893;DHT22;17595;50.884;4.346;2023-09-12T05:51:42;21.80;99.90
30893;DHT22;17595;50.884;4.346;2023-09-12T05:54:08;21.80;99.90
30893;DHT22;17595;50.884;4.346;2023-09-12T05:56:34;21.90;99.90
30893;DHT22;17595;50.884;4.346;2023-09-12T06:01:26;22.70;99.90
30893;DHT22;17595;50.884;4.346;2023-09-12T06:03:51;22.10;99.90
30893;DHT22;17595;50.884;4.346;2023-09-12T06:06:17;21.80;99.90
30893;DHT22;17595;50.884;4.346;2023-09-12T06:08:42;21.80;99.90
30893;DHT22;17595;50.884;4.346;2023-09-12T06:11:08;21.80;99.90
30893;DHT22;17595;50.884;4.346;2023-09-12T06:13:34;21.90;99.90
30893;DHT22;17595;50.884;4.346;2023-09-12T06:16:03;21.90;99.90
30893;DHT22;17595;50.884;4.346;2023-09-12T06:18:29;21.70;99.90
30893;DHT22;17595;50.884;4.346;2023-09-12T06:20:57;21.60;99.90
30893;DHT22;17595;50.884;4.346;2023-09-12T06:23:23;21.60;99.90
30893;DHT22;17595;50.884;4.346;2023-09-12T06:25:49;21.60;99.90
30893;DHT22;17595;50.884;4.346;2023-09-12T06:28:28;21.60;99.90
30893;DHT22;17595;50.884;4.346;2023-09-12T06:30:54;21.80;99.90
30893;DHT22;17595;50.884;4.346;2023-09-12T06:33:20;21.70;99.90
30893;DHT22;17595;50.884;4.346;2023-09-12T06:35:49;21.50;99.90
30893;DHT22;17595;50.884;4.346;2023-09-12T06:38:16;21.30;99.90
30893;DHT22;17595;50.884;4.346;2023-09-12T06:40:45;21.20;99.90
30893;DHT22;17595;50.884;4.346;2023-09-12T06:43:10;21.00;99.90
30893;DHT22;17595;50.884;4.346;2023-09-12T06:45:36;21.00;99.90
30893;DHT22;17595;50.884;4.346;2023-09-12T06:48:03;21.10;99.90
30893;DHT22;17595;50.884;4.346;2023-09-12T06:50:29;21.30;99.90
30893;DHT22;17595;50.884;4.346;2023-09-12T06:52:55;21.50;99.90
30893;DHT22;17595;50.884;4.346;2023-09-12T06:55:20;21.60;99.90
30893;DHT22;17595;50.884;4.346;2023-09-12T06:57:46;21.70;99.90
30893;DHT22;17595;50.884;4.346;2023-09-12T07:00:12;21.90;99.90
30893;DHT22;17595;50.884;4.346;2023-09-12T07:02:38;22.00;99.90
30893;DHT22;17595;50.884;4.346;2023-09-12T07:05:04;22.10;99.90
30893;DHT22;17595;50.884;4.346;2023-09-12T07:07:30;22.20;99.90
30893;DHT22;17595;50.884;4.346;2023-09-12T07:09:56;22.30;99.90
30893;DHT22;17595;50.884;4.346;2023-09-12T07:12:22;22.40;99.90
30893;DHT22;17595;50.884;4.346;2023-09-12T07:14:47;22.20;99.90
30893;DHT22;17595;50.884;4.346;2023-09-12T07:17:13;22.00;99.90
30893;DHT22;17595;50.884;4.346;2023-09-12T07:19:39;21.90;99.90
30893;DHT22;17595;50.884;4.346;2023-09-12T07:22:05;21.80;99.90
30893;DHT22;17595;50.884;4.346;2023-09-12T07:24:31;21.80;99.90
30893;DHT22;17595;50.884;4.346;2023-09-12T07:26:56;21.90;99.90
30893;DHT22;17595;50.884;4.346;2023-09-12T07:29:23;21.90;99.90
30893;DHT22;17595;50.884;4.346;2023-09-12T07:31:52;21.90;99.90
30893;DHT22;17595;50.884;4.346;2023-09-12T07:34:20;22.00;99.90
30893;DHT22;17595;50.884;4.346;2023-09-12T07:36:45;22.20;99.90
30893;DHT22;17595;50.884;4.346;2023-09-12T07:39:11;22.20;99.90
30893;DHT22;17595;50.884;4.346;2023-09-12T07:41:36;22.30;99.90
30893;DHT22;17595;50.884;4.346;2023-09-12T07:44:02;22.30;99.90
30893;DHT22;17595;50.884;4.346;2023-09-12T07:46:30;22.30;99.90
30893;DHT22;17595;50.884;4.346;2023-09-12T07:48:56;22.40;99.90
30893;DHT22;17595;50.884;4.346;2023-09-12T07:51:22;22.50;99.90
30893;DHT22;17595;50.884;4.346;2023-09-12T07:53:48;22.70;99.90
30893;DHT22;17595;50.884;4.346;2023-09-12T07:56:14;22.80;99.90
30893;DHT22;17595;50.884;4.346;2023-09-12T07:58:39;22.60;99.90
30893;DHT22;17595;50.884;4.346;2023-09-12T08:01:09;22.70;99.90
30893;DHT22;17595;50.884;4.346;2023-09-12T08:03:36;23.00;99.90
30893;DHT22;17595;50.884;4.346;2023-09-12T08:06:03;23.10;99.90
30893;DHT22;17595;50.884;4.346;2023-09-12T08:08:29;23.10;99.90
30893;DHT22;17595;50.884;4.346;2023-09-12T08:10:56;22.80;99.90
30893;DHT22;17595;50.884;4.346;2023-09-12T08:13:22;22.90;99.90
30893;DHT22;17595;50.884;4.346;2023-09-12T08:15:48;23.20;99.90
30893;DHT22;17595;50.884;4.346;2023-09-12T08:18:14;23.30;99.90
30893;DHT22;17595;50.884;4.346;2023-09-12T08:20:40;23.50;99.90
30893;DHT22;17595;50.884;4.346;2023-09-12T08:23:06;23.80;99.90
30893;DHT22;17595;50.884;4.346;2023-09-12T08:25:32;24.20;99.90
30893;DHT22;17595;50.884;4.346;2023-09-12T08:27:58;24.50;99.90
30893;DHT22;17595;50.884;4.346;2023-09-12T08:30:23;24.70;99.90
30893;DHT22;17595;50.884;4.346;2023-09-12T08:32:50;24.80;99.90
30893;DHT22;17595;50.884;4.346;2023-09-12T08:35:16;24.80;99.90
30893;DHT22;17595;50.884;4.346;2023-09-12T08:37:42;24.20;99.90
30893;DHT22;17595;50.884;4.346;2023-09-12T08:40:09;24.20;99.90
30893;DHT22;17595;50.884;4.346;2023-09-12T08:42:40;23.90;99.90
30893;DHT22;17595;50.884;4.346;2023-09-12T08:45:14;23.70;99.90
30893;DHT22;17595;50.884;4.346;2023-09-12T08:47:50;23.50;99.90
30893;DHT22;17595;50.884;4.346;2023-09-12T08:50:17;23.70;99.90
30893;DHT22;17595;50.884;4.346;2023-09-12T08:52:43;23.80;99.90
30893;DHT22;17595;50.884;4.346;2023-09-12T08:55:10;23.80;99.90
30893;DHT22;17595;50.884;4.346;2023-09-12T08:57:38;23.70;99.90
30893;DHT22;17595;50.884;4.346;2023-09-12T09:00:05;23.70;99.90
30893;DHT22;17595;50.884;4.346;2023-09-12T09:02:35;23.90;99.90
30893;DHT22;17595;50.884;4.346;2023-09-12T09:05:06;24.10;99.90
30893;DHT22;17595;50.884;4.346;2023-09-12T09:07:33;24.30;99.90
30893;DHT22;17595;50.884;4.346;2023-09-12T09:10:02;24.60;99.90
30893;DHT22;17595;50.884;4.346;2023-09-12T09:12:30;24.70;99.90
30893;DHT22;17595;50.884;4.346;2023-09-12T09:14:55;24.80;99.90
30893;DHT22;17595;50.884;4.346;2023-09-12T09:17:21;24.90;99.90
30893;DHT22;17595;50.884;4.346;2023-09-12T09:19:47;24.60;99.90
30893;DHT22;17595;50.884;4.346;2023-09-12T09:22:13;24.00;99.90
30893;DHT22;17595;50.884;4.346;2023-09-12T09:24:39;23.80;99.90
30893;DHT22;17595;50.884;4.346;2023-09-12T09:27:04;24.00;99.90
30893;DHT22;17595;50.884;4.346;2023-09-12T09:29:30;24.20;99.90
30893;DHT22;17595;50.884;4.346;2023-09-12T09:32:00;24.30;99.90
30893;DHT22;17595;50.884;4.346;2023-09-12T09:34:26;24.50;99.90
30893;DHT22;17595;50.884;4.346;2023-09-12T09:36:58;24.50;99.90
30893;DHT22;17595;50.884;4.346;2023-09-12T09:39:28;24.50;99.90
30893;DHT22;17595;50.884;4.346;2023-09-12T09:41:57;24.70;99.90
30893;DHT22;17595;50.884;4.346;2023-09-12T09:44:24;24.80;99.90
30893;DHT22;17595;50.884;4.346;2023-09-12T09:46:59;24.50;99.90
30893;DHT22;17595;50.884;4.346;2023-09-12T09:49:30;24.30;99.90
30893;DHT22;17595;50.884;4.346;2023-09-12T09:51:56;24.60;99.90
30893;DHT22;17595;50.884;4.346;2023-09-12T09:54:24;24.70;99.90
30893;DHT22;17595;50.884;4.346;2023-09-12T09:56:54;24.40;99.90
30893;DHT22;17595;50.884;4.346;2023-09-12T09:59:24;24.20;99.90
30893;DHT22;17595;50.884;4.346;2023-09-12T10:01:53;24.10;99.90
30893;DHT22;17595;50.884;4.346;2023-09-12T10:04:21;24.20;99.90
30893;DHT22;17595;50.884;4.346;2023-09-12T10:06:48;23.90;99.90
30893;DHT22;17595;50.884;4.346;2023-09-12T10:09:14;23.60;99.90
30893;DHT22;17595;50.884;4.346;2023-09-12T10:11:42;23.40;99.90
30893;DHT22;17595;50.884;4.346;2023-09-12T10:14:08;23.50;99.90
30893;DHT22;17595;50.884;4.346;2023-09-12T10:16:36;23.70;99.90
30893;DHT22;17595;50.884;4.346;2023-09-12T10:19:23;24.00;99.90
30893;DHT22;17595;50.884;4.346;2023-09-12T10:22:09;24.10;99.90
30893;DHT22;17595;50.884;4.346;2023-09-12T10:24:35;24.50;99.90
30893;DHT22;17595;50.884;4.346;2023-09-12T10:27:02;24.50;99.90
30893;DHT22;17595;50.884;4.346;2023-09-12T10:29:29;24.30;99.90
30893;DHT22;17595;50.884;4.346;2023-09-12T10:31:56;24.00;99.90
30893;DHT22;17595;50.884;4.346;2023-09-12T10:34:24;24.00;99.90
30893;DHT22;17595;50.884;4.346;2023-09-12T10:36:51;23.90;99.90
30893;DHT22;17595;50.884;4.346;2023-09-12T10:39:19;23.90;99.90
30893;DHT22;17595;50.884;4.346;2023-09-12T10:41:46;23.90;99.90
30893;DHT22;17595;50.884;4.346;2023-09-12T10:44:16;23.80;99.90
30893;DHT22;17595;50.884;4.346;2023-09-12T10:46:44;23.80;99.90
30893;DHT22;17595;50.884;4.346;2023-09-12T10:49:13;24.00;99.90
30893;DHT22;17595;50.884;4.346;2023-09-12T10:51:43;24.10;99.90
30893;DHT22;17595;50.884;4.346;2023-09-12T10:54:22;24.10;99.90
30893;DHT22;17595;50.884;4.346;2023-09-12T10:57:09;24.10;99.90
30893;DHT22;17595;50.884;4.346;2023-09-12T10:59:36;24.50;99.90
30893;DHT22;17595;50.884;4.346;2023-09-12T11:02:27;24.80;99.90
30893;DHT22;17595;50.884;4.346;2023-09-12T11:04:54;24.60;99.90
30893;DHT22;17595;50.884;4.346;2023-09-12T11:12:55;24.20;99.90
30893;DHT22;17595;50.884;4.346;2023-09-12T11:15:23;24.40;99.90
30893;DHT22;17595;50.884;4.346;2023-09-12T11:18:06;24.40;99.90
30893;DHT22;17595;50.884;4.346;2023-09-12T11:23:23;24.50;99.90
30893;DHT22;17595;50.884;4.346;2023-09-12T11:26:05;24.50;99.90
30893;DHT22;17595;50.884;4.346;2023-09-12T11:28:31;24.90;99.90
30893;DHT22;17595;50.884;4.346;2023-09-12T11:30:58;25.00;99.90
30893;DHT22;17595;50.884;4.346;2023-09-12T11:33:24;25.00;99.90
30893;DHT22;17595;50.884;4.346;2023-09-12T11:35:55;24.90;99.90
30893;DHT22;17595;50.884;4.346;2023-09-12T11:38:27;25.10;99.90
30893;DHT22;17595;50.884;4.346;2023-09-12T11:40:53;25.10;99.90
30893;DHT22;17595;50.884;4.346;2023-09-12T11:43:26;25.00;99.90
30893;DHT22;17595;50.884;4.346;2023-09-12T11:45:54;25.40;99.90
30893;DHT22;17595;50.884;4.346;2023-09-12T11:48:19;25.50;99.90
30893;DHT22;17595;50.884;4.346;2023-09-12T11:50:56;25.60;99.90
30893;DHT22;17595;50.884;4.346;2023-09-12T11:53:27;25.50;99.90
30893;DHT22;17595;50.884;4.346;2023-09-12T11:55:57;25.50;99.90
30893;DHT22;17595;50.884;4.346;2023-09-12T11:58:25;25.60;99.90
30893;DHT22;17595;50.884;4.346;2023-09-12T12:00:52;25.10;99.90
30893;DHT22;17595;50.884;4.346;2023-09-12T12:03:20;25.00;99.90
30893;DHT22;17595;50.884;4.346;2023-09-12T12:05:47;25.00;99.90
30893;DHT22;17595;50.884;4.346;2023-09-12T12:08:14;25.30;99.90
30893;DHT22;17595;50.884;4.346;2023-09-12T12:10:40;25.30;99.90
30893;DHT22;17595;50.884;4.346;2023-09-12T12:13:16;25.40;99.90
30893;DHT22;17595;50.884;4.346;2023-09-12T12:15:41;25.70;99.90
30893;DHT22;17595;50.884;4.346;2023-09-12T12:18:07;25.60;99.90
30893;DHT22;17595;50.884;4.346;2023-09-12T12:20:33;25.30;99.90
30893;DHT22;17595;50.884;4.346;2023-09-12T12:22:59;25.20;99.90
30893;DHT22;17595;50.884;4.346;2023-09-12T12:25:24;25.00;99.90
30893;DHT22;17595;50.884;4.346;2023-09-12T12:27:50;24.90;99.90
30893;DHT22;17595;50.884;4.346;2023-09-12T12:30:18;24.90;99.90
30893;DHT22;17595;50.884;4.346;2023-09-12T12:32:46;25.00;99.90
30893;DHT22;17595;50.884;4.346;2023-09-12T12:35:22;25.00;99.90
30893;DHT22;17595;50.884;4.346;2023-09-12T12:37:49;24.80;99.90
30893;DHT22;17595;50.884;4.346;2023-09-12T12:40:16;24.70;99.90
30893;DHT22;17595;50.884;4.346;2023-09-12T12:42:44;24.60;99.90
30893;DHT22;17595;50.884;4.346;2023-09-12T12:45:21;24.40;99.90
30893;DHT22;17595;50.884;4.346;2023-09-12T12:47:58;24.40;99.90
30893;DHT22;17595;50.884;4.346;2023-09-12T12:50:24;24.40;99.90
30893;DHT22;17595;50.884;4.346;2023-09-12T12:52:50;24.50;99.90
30893;DHT22;17595;50.884;4.346;2023-09-12T12:55:16;24.80;99.90
30893;DHT22;17595;50.884;4.346;2023-09-12T12:57:44;25.00;99.90
30893;DHT22;17595;50.884;4.346;2023-09-12T13:00:14;25.00;99.90
30893;DHT22;17595;50.884;4.346;2023-09-12T13:02:41;24.80;99.90
30893;DHT22;17595;50.884;4.346;2023-09-12T13:05:26;24.90;99.90
30893;DHT22;17595;50.884;4.346;2023-09-12T13:07:52;24.80;99.90
30893;DHT22;17595;50.884;4.346;2023-09-12T13:10:19;24.80;99.90
30893;DHT22;17595;50.884;4.346;2023-09-12T13:12:45;24.70;99.90
30893;DHT22;17595;50.884;4.346;2023-09-12T13:15:14;24.80;99.90
30893;DHT22;17595;50.884;4.346;2023-09-12T13:17:43;25.00;99.90
30893;DHT22;17595;50.884;4.346;2023-09-12T13:20:09;25.20;99.90
30893;DHT22;17595;50.884;4.346;2023-09-12T13:22:36;25.20;99.90
30893;DHT22;17595;50.884;4.346;2023-09-12T13:25:02;25.00;99.90
30893;DHT22;17595;50.884;4.346;2023-09-12T13:27:28;24.90;99.90
30893;DHT22;17595;50.884;4.346;2023-09-12T13:29:53;24.90;99.90
30893;DHT22;17595;50.884;4.346;2023-09-12T13:32:19;25.00;99.90
30893;DHT22;17595;50.884;4.346;2023-09-12T13:34:45;24.90;99.90
30893;DHT22;17595;50.884;4.346;2023-09-12T13:37:11;24.90;99.90
30893;DHT22;17595;50.884;4.346;2023-09-12T13:39:36;24.80;99.90
30893;DHT22;17595;50.884;4.346;2023-09-12T13:42:02;24.70;99.90
30893;DHT22;17595;50.884;4.346;2023-09-12T13:44:29;24.70;99.90
30893;DHT22;17595;50.884;4.346;2023-09-12T13:46:55;24.90;99.90
30893;DHT22;17595;50.884;4.346;2023-09-12T13:49:21;24.90;99.90
30893;DHT22;17595;50.884;4.346;2023-09-12T13:51:46;24.80;99.90
30893;DHT22;17595;50.884;4.346;2023-09-12T13:54:12;24.70;99.90
30893;DHT22;17595;50.884;4.346;2023-09-12T13:56:44;24.80;99.90
30893;DHT22;17595;50.884;4.346;2023-09-12T13:59:10;24.80;99.90
30893;DHT22;17595;50.884;4.346;2023-09-12T14:01:35;24.70;99.90
30893;DHT22;17595;50.884;4.346;2023-09-12T14:04:02;24.70;99.90
30893;DHT22;17595;50.884;4.346;2023-09-12T14:06:28;24.80;99.90
30893;DHT22;17595;50.884;4.346;2023-09-12T14:08:54;24.90;99.90
30893;DHT22;17595;50.884;4.346;2023-09-12T14:11:19;24.90;99.90
30893;DHT22;17595;50.884;4.346;2023-09-12T14:13:45;24.90;99.90
30893;DHT22;17595;50.884;4.346;2023-09-12T14:16:11;24.90;99.90
30893;DHT22;17595;50.884;4.346;2023-09-12T14:18:36;24.90;99.90
30893;DHT22;17595;50.884;4.346;2023-09-12T14:21:03;24.90;99.90
30893;DHT22;17595;50.884;4.346;2023-09-12T14:23:28;24.80;99.90
30893;DHT22;17595;50.884;4.346;2023-09-12T14:25:54;24.80;99.90
30893;DHT22;17595;50.884;4.346;2023-09-12T14:28:20;24.80;99.90
30893;DHT22;17595;50.884;4.346;2023-09-12T14:30:46;24.90;99.90
30893;DHT22;17595;50.884;4.346;2023-09-12T14:33:12;25.00;99.90
30893;DHT22;17595;50.884;4.346;2023-09-12T14:35:39;25.00;99.90
30893;DHT22;17595;50.884;4.346;2023-09-12T14:38:05;24.90;99.90
30893;DHT22;17595;50.884;4.346;2023-09-12T14:40:31;24.70;99.90
30893;DHT22;17595;50.884;4.346;2023-09-12T14:42:57;24.70;99.90
30893;DHT22;17595;50.884;4.346;2023-09-12T14:45:22;24.50;99.90
30893;DHT22;17595;50.884;4.346;2023-09-12T14:47:50;24.50;99.90
30893;DHT22;17595;50.884;4.346;2023-09-12T14:50:16;24.40;99.90
30893;DHT22;17595;50.884;4.346;2023-09-12T14:52:42;24.40;99.90
30893;DHT22;17595;50.884;4.346;2023-09-12T14:55:09;24.20;99.90
30893;DHT22;17595;50.884;4.346;2023-09-12T14:57:35;24.20;99.90
30893;DHT22;17595;50.884;4.346;2023-09-12T15:00:00;24.30;99.90
30893;DHT22;17595;50.884;4.346;2023-09-12T15:02:26;24.20;99.90
30893;DHT22;17595;50.884;4.346;2023-09-12T15:05:00;24.30;99.90
30893;DHT22;17595;50.884;4.346;2023-09-12T15:07:27;24.30;99.90
30893;DHT22;17595;50.884;4.346;2023-09-12T15:09:55;24.20;99.90
30893;DHT22;17595;50.884;4.346;2023-09-12T15:12:20;24.30;99.90
30893;DHT22;17595;50.884;4.346;2023-09-12T15:14:46;24.30;99.90
30893;DHT22;17595;50.884;4.346;2023-09-12T15:17:12;24.10;99.90
30893;DHT22;17595;50.884;4.346;2023-09-12T15:19:37;24.10;99.90
30893;DHT22;17595;50.884;4.346;2023-09-12T15:22:03;24.10;99.90
30893;DHT22;17595;50.884;4.346;2023-09-12T15:24:29;23.90;99.90
30893;DHT22;17595;50.884;4.346;2023-09-12T15:26:54;23.90;99.90
30893;DHT22;17595;50.884;4.346;2023-09-12T15:29:20;24.00;99.90
30893;DHT22;17595;50.884;4.346;2023-09-12T15:31:46;24.10;99.90
30893;DHT22;17595;50.884;4.346;2023-09-12T15:34:11;24.10;99.90
30893;DHT22;17595;50.884;4.346;2023-09-12T15:36:43;24.20;99.90
30893;DHT22;17595;50.884;4.346;2023-09-12T15:39:09;24.10;99.90
30893;DHT22;17595;50.884;4.346;2023-09-12T15:41:35;24.20;99.90
30893;DHT22;17595;50.884;4.346;2023-09-12T15:44:01;24.30;99.90
30893;DHT22;17595;50.884;4.346;2023-09-12T15:46:29;24.30;99.90
30893;DHT22;17595;50.884;4.346;2023-09-12T15:48:54;24.40;99.90
30893;DHT22;17595;50.884;4.346;2023-09-12T15:51:23;24.40;99.90
30893;DHT22;17595;50.884;4.346;2023-09-12T15:53:49;24.40;99.90
30893;DHT22;17595;50.884;4.346;2023-09-12T15:56:15;24.20;99.90
30893;DHT22;17595;50.884;4.346;2023-09-12T15:58:40;24.10;99.90
30893;DHT22;17595;50.884;4.346;2023-09-12T16:01:07;24.00;99.90
30893;DHT22;17595;50.884;4.346;2023-09-12T16:03:33;24.00;99.90
30893;DHT22;17595;50.884;4.346;2023-09-12T16:05:58;24.10;99.90
30893;DHT22;17595;50.884;4.346;2023-09-12T16:08:24;24.10;99.90
30893;DHT22;17595;50.884;4.346;2023-09-12T16:10:50;24.10;99.90
30893;DHT22;17595;50.884;4.346;2023-09-12T16:13:16;24.10;99.90
30893;DHT22;17595;50.884;4.346;2023-09-12T16:15:42;24.20;99.90
30893;DHT22;17595;50.884;4.346;2023-09-12T16:18:07;24.30;99.90
30893;DHT22;17595;50.884;4.346;2023-09-12T16:20:33;24.40;99.90